Time;durP1;ratioP1;P1;durP2;ratioP2;P2;SDS_P1;SDS_P2;PMS_P1;PMS_P2;Temp;Humidity;BMP_temperature;BMP_pressure;BME280_temperature;BME280_humidity;BME280_pressure;Samples;Min_cycle;Max_cycle;Signal;HPM_P1;HPM_P2
2023/02/21 02:16:14;;;;;;;100.45;29.20;;;8.10;99.90;;;;;;5003833;28;20290;-81
2023/02/21 02:18:54;;;;;;;102.32;28.70;;;8.10;99.90;;;;;;5003730;28;20154;-82
2023/02/21 02:21:26;;;;;;;100.00;29.52;;;8.10;99.90;;;;;;4999139;28;20191;-81
2023/02/21 02:24:10;;;;;;;102.53;32.92;;;8.10;99.90;;;;;;4968349;28;20246;-81
2023/02/21 02:27:23;;;;;;;103.95;29.02;;;8.10;99.90;;;;;;4985680;28;20159;-81
2023/02/21 02:30:22;;;;;;;102.00;27.75;;;8.10;99.90;;;;;;4944045;29;20177;-82
2023/02/21 02:33:15;;;;;;;105.88;29.40;;;8.20;99.90;;;;;;4905647;29;20664;-81
2023/02/21 02:35:47;;;;;;;104.05;27.67;;;8.20;99.90;;;;;;4981130;28;20218;-81
2023/02/21 02:38:27;;;;;;;96.72;26.52;;;8.20;99.90;;;;;;4986584;28;20247;-81
2023/02/21 02:41:10;;;;;;;100.13;30.15;;;8.20;99.90;;;;;;4985618;28;20154;-81
2023/02/21 02:43:51;;;;;;;102.97;29.15;;;8.20;99.90;;;;;;4968715;28;20159;-81
2023/02/21 02:46:33;;;;;;;106.82;28.63;;;8.20;99.90;;;;;;4985356;28;20151;-81
2023/02/21 02:49:04;;;;;;;98.97;27.30;;;8.20;99.90;;;;;;4986778;28;20147;-82
2023/02/21 02:51:33;;;;;;;103.32;28.42;;;8.20;99.90;;;;;;4985373;28;20191;-81
2023/02/21 02:53:58;;;;;;;104.15;30.40;;;8.20;99.90;;;;;;4985132;28;20174;-81
2023/02/21 02:56:25;;;;;;;99.77;29.47;;;8.20;99.90;;;;;;4985659;28;20554;-82
2023/02/21 02:58:59;;;;;;;102.43;30.23;;;8.20;99.90;;;;;;4984852;28;20159;-82
2023/02/21 03:01:46;;;;;;;107.10;30.13;;;8.20;99.90;;;;;;4966851;28;20213;-81
2023/02/21 03:04:37;;;;;;;106.65;30.20;;;8.20;99.90;;;;;;4968019;28;20170;-81
2023/02/21 03:07:21;;;;;;;106.13;30.02;;;8.20;99.90;;;;;;4985730;28;20160;-81
2023/02/21 03:10:31;;;;;;;111.95;32.28;;;8.20;99.90;;;;;;4968264;28;20163;-81
2023/02/21 03:13:16;;;;;;;107.03;29.15;;;8.20;99.90;;;;;;4969612;28;20215;-82
2023/02/21 03:16:06;;;;;;;108.88;32.60;;;8.20;99.90;;;;;;4985076;28;20187;-82
2023/02/21 03:19:09;;;;;;;103.80;30.75;;;8.20;99.90;;;;;;4964086;28;20179;-81
2023/02/21 03:21:40;;;;;;;106.13;28.35;;;8.20;99.90;;;;;;4944641;29;20275;-81
2023/02/21 03:24:07;;;;;;;105.80;31.27;;;8.30;99.90;;;;;;4977948;28;20179;-81
2023/02/21 03:26:37;;;;;;;109.35;32.80;;;8.30;99.90;;;;;;4985008;28;20226;-82
2023/02/21 03:29:04;;;;;;;107.68;30.30;;;8.30;99.90;;;;;;4985048;28;20234;-82
2023/02/21 03:31:36;;;;;;;107.80;33.42;;;8.30;99.90;;;;;;4985206;28;20210;-81
2023/02/21 03:34:02;;;;;;;103.85;29.55;;;8.30;99.90;;;;;;4985338;28;20163;-81
2023/02/21 03:36:28;;;;;;;104.23;31.43;;;8.30;99.90;;;;;;4984878;28;20190;-82
2023/02/21 03:38:53;;;;;;;105.60;31.40;;;8.30;99.90;;;;;;4984761;28;20945;-81
2023/02/21 03:41:19;;;;;;;104.30;31.10;;;8.30;99.90;;;;;;4983544;28;20478;-81
2023/02/21 03:43:45;;;;;;;117.60;33.10;;;8.30;99.90;;;;;;4984461;28;20167;-81
2023/02/21 03:46:10;;;;;;;108.90;33.33;;;8.30;99.90;;;;;;4983470;28;20191;-82
2023/02/21 03:48:37;;;;;;;111.45;28.80;;;8.30;99.90;;;;;;4984187;28;20175;-81
2023/02/21 03:51:03;;;;;;;105.20;29.93;;;8.30;99.90;;;;;;4984617;28;20202;-83
2023/02/21 03:53:28;;;;;;;107.68;30.27;;;8.30;99.90;;;;;;4984358;28;20254;-81
2023/02/21 03:55:54;;;;;;;108.40;32.50;;;8.30;99.90;;;;;;4984596;28;20230;-81
2023/02/21 03:58:20;;;;;;;102.53;30.07;;;8.30;99.90;;;;;;4966793;28;20171;-82
2023/02/21 04:01:19;;;;;;;99.33;27.57;;;8.30;99.90;;;;;;4986737;28;20166;-81
2023/02/21 04:03:44;;;;;;;105.45;27.83;;;8.30;99.90;;;;;;4976755;28;20197;-82
2023/02/21 04:06:10;;;;;;;100.00;26.57;;;8.40;99.90;;;;;;4983620;28;20215;-81
2023/02/21 04:08:36;;;;;;;98.63;29.07;;;8.40;99.90;;;;;;4966906;28;20182;-82
2023/02/21 04:11:01;;;;;;;98.03;27.40;;;8.50;99.90;;;;;;4984108;28;20209;-81
2023/02/21 04:13:27;;;;;;;102.77;28.37;;;8.50;99.90;;;;;;4984161;28;20225;-81
2023/02/21 04:15:53;;;;;;;100.73;25.37;;;8.50;99.90;;;;;;4983997;28;20246;-81
2023/02/21 04:18:18;;;;;;;98.80;23.57;;;8.60;99.90;;;;;;4984494;28;20167;-81
2023/02/21 04:20:46;;;;;;;101.93;25.70;;;8.60;99.90;;;;;;4984834;28;20171;-82
2023/02/21 04:23:15;;;;;;;94.25;23.88;;;8.50;99.90;;;;;;4984400;28;20213;-81
2023/02/21 04:25:41;;;;;;;98.47;25.45;;;8.50;99.90;;;;;;4984337;28;20174;-81
2023/02/21 04:28:07;;;;;;;106.30;26.93;;;8.50;99.90;;;;;;4967696;28;20262;-81
2023/02/21 04:30:32;;;;;;;98.37;24.67;;;8.50;99.90;;;;;;4984093;28;20771;-82
2023/02/21 04:32:58;;;;;;;97.80;25.37;;;8.40;99.90;;;;;;4983880;28;20191;-82
2023/02/21 04:35:24;;;;;;;100.77;25.70;;;8.40;99.90;;;;;;4984843;28;20417;-81
2023/02/21 04:37:49;;;;;;;98.10;25.00;;;8.50;99.90;;;;;;4984113;28;20175;-81
2023/02/21 04:40:15;;;;;;;101.93;26.10;;;8.40;99.90;;;;;;4983748;28;20171;-81
2023/02/21 04:42:41;;;;;;;94.83;25.33;;;8.40;99.90;;;;;;4983541;28;20186;-81
2023/02/21 04:45:07;;;;;;;98.53;27.03;;;8.40;99.90;;;;;;4984073;28;20171;-81
2023/02/21 04:47:32;;;;;;;94.18;25.85;;;8.40;99.90;;;;;;4983651;28;20160;-81
2023/02/21 04:49:58;;;;;;;98.57;24.80;;;8.40;99.90;;;;;;4983685;28;20226;-81
2023/02/21 04:52:24;;;;;;;100.73;26.70;;;8.40;99.90;;;;;;4983533;28;20183;-82
2023/02/21 04:54:50;;;;;;;91.27;23.17;;;8.40;99.90;;;;;;4983992;28;20171;-82
2023/02/21 04:57:16;;;;;;;103.03;27.43;;;8.40;99.90;;;;;;4983780;28;20203;-82
2023/02/21 04:59:41;;;;;;;97.32;25.17;;;8.40;99.90;;;;;;4987910;28;20187;-81
2023/02/21 05:02:08;;;;;;;99.47;26.83;;;8.40;99.90;;;;;;4988096;28;20187;-82
2023/02/21 05:04:36;;;;;;;96.20;22.90;;;8.40;99.90;;;;;;4988273;28;20170;-82
2023/02/21 05:07:04;;;;;;;103.05;27.38;;;8.40;99.90;;;;;;4971561;28;20670;-81
2023/02/21 05:09:29;;;;;;;101.57;26.45;;;8.40;99.90;;;;;;4988622;28;20282;-82
2023/02/21 05:11:55;;;;;;;96.50;26.03;;;8.40;99.90;;;;;;4970536;28;20211;-83
2023/02/21 05:14:21;;;;;;;99.40;24.57;;;8.40;99.90;;;;;;4987216;28;20171;-81
2023/02/21 05:16:46;;;;;;;95.40;25.60;;;8.40;99.90;;;;;;4987807;28;20214;-83
2023/02/21 05:19:12;;;;;;;97.57;24.60;;;8.40;99.90;;;;;;4988286;28;20167;-83
2023/02/21 05:21:38;;;;;;;98.70;26.17;;;8.40;99.90;;;;;;4989595;28;20266;-82
2023/02/21 05:24:05;;;;;;;99.40;25.43;;;8.40;99.90;;;;;;4989983;28;20422;-82
2023/02/21 05:26:36;;;;;;;93.50;24.40;;;8.40;99.90;;;;;;4990288;28;20170;-81
2023/02/21 05:29:03;;;;;;;93.35;22.45;;;8.40;99.90;;;;;;4989719;28;20167;-81
2023/02/21 05:31:30;;;;;;;99.03;23.42;;;8.40;99.90;;;;;;4989730;28;20183;-81
2023/02/21 05:33:56;;;;;;;95.57;25.17;;;8.40;99.90;;;;;;4990121;28;20179;-81
2023/02/21 05:36:24;;;;;;;101.70;24.08;;;8.40;99.90;;;;;;4989805;28;20191;-81
2023/02/21 05:38:52;;;;;;;96.32;21.67;;;8.40;99.90;;;;;;5061876;22;20241;-84
2023/02/21 05:41:18;;;;;;;97.68;25.55;;;8.50;99.90;;;;;;4983131;28;20190;-84
2023/02/21 05:43:46;;;;;;;92.07;22.42;;;8.40;99.90;;;;;;5000782;28;20609;-84
2023/02/21 05:46:18;;;;;;;101.03;24.67;;;8.40;99.90;;;;;;5000834;28;20246;-84
2023/02/21 05:48:44;;;;;;;97.10;23.52;;;8.40;99.90;;;;;;5000482;28;20166;-83
2023/02/21 05:51:10;;;;;;;94.30;22.30;;;8.40;99.90;;;;;;4982368;28;20229;-83
2023/02/21 05:53:36;;;;;;;104.07;26.20;;;8.50;99.90;;;;;;5000268;28;20175;-83
2023/02/21 05:56:01;;;;;;;93.70;23.30;;;8.40;99.90;;;;;;5000056;28;20249;-83
2023/02/21 05:58:27;;;;;;;100.87;25.60;;;8.40;99.90;;;;;;5000642;28;20171;-83
2023/02/21 06:00:53;;;;;;;93.60;22.07;;;8.40;99.90;;;;;;5000671;28;20163;-84
2023/02/21 06:03:19;;;;;;;97.03;24.60;;;8.40;99.90;;;;;;5000654;28;20398;-84
2023/02/21 06:05:44;;;;;;;101.40;27.73;;;8.40;99.90;;;;;;5000703;28;20186;-84
2023/02/21 06:08:10;;;;;;;99.60;25.13;;;8.40;99.90;;;;;;5000025;28;20174;-83
2023/02/21 06:10:35;;;;;;;103.67;25.70;;;8.50;99.90;;;;;;4999731;28;20209;-84
2023/02/21 06:13:01;;;;;;;97.30;24.03;;;8.50;99.90;;;;;;5000705;28;20190;-84
2023/02/21 06:15:27;;;;;;;102.27;24.23;;;8.50;99.90;;;;;;4999162;28;20171;-84
2023/02/21 06:17:52;;;;;;;100.70;26.17;;;8.50;99.90;;;;;;5001011;28;20174;-83
2023/02/21 06:20:18;;;;;;;106.67;26.90;;;8.50;99.90;;;;;;5000429;28;20171;-84
2023/02/21 06:22:46;;;;;;;110.23;27.67;;;8.40;99.90;;;;;;5000295;28;20268;-84
2023/02/21 06:25:12;;;;;;;103.80;26.10;;;8.50;99.90;;;;;;5000316;28;20170;-84
2023/02/21 06:27:38;;;;;;;96.37;24.73;;;8.60;99.90;;;;;;5000686;28;20250;-84
2023/02/21 06:30:05;;;;;;;98.57;23.53;;;8.60;99.90;;;;;;4999990;28;20408;-83
2023/02/21 06:32:31;;;;;;;102.97;29.40;;;8.60;99.90;;;;;;4999440;28;20557;-84
2023/02/21 06:34:56;;;;;;;99.73;24.83;;;8.60;99.90;;;;;;4999960;28;20167;-83
2023/02/21 06:37:22;;;;;;;96.30;23.97;;;8.50;99.90;;;;;;4982414;28;20197;-83
2023/02/21 06:39:48;;;;;;;104.27;29.70;;;8.50;99.90;;;;;;4999804;28;20234;-83
2023/02/21 06:42:15;;;;;;;99.50;29.33;;;8.50;99.90;;;;;;4999533;28;20418;-83
2023/02/21 06:44:48;;;;;;;99.05;27.85;;;8.50;99.90;;;;;;4982139;28;20163;-83
2023/02/21 06:47:14;;;;;;;98.13;27.70;;;8.50;99.90;;;;;;4999535;28;20162;-83
2023/02/21 06:49:40;;;;;;;99.75;28.23;;;8.50;99.90;;;;;;4999892;28;20163;-83
2023/02/21 06:52:06;;;;;;;99.97;28.23;;;8.50;99.90;;;;;;4999354;28;20186;-83
2023/02/21 06:54:32;;;;;;;108.95;30.77;;;8.50;99.90;;;;;;4982445;28;20508;-83
2023/02/21 06:57:00;;;;;;;101.67;29.73;;;8.50;99.90;;;;;;5000146;28;20674;-84
2023/02/21 06:59:27;;;;;;;111.10;34.03;;;8.40;99.90;;;;;;4999493;28;20614;-84
2023/02/21 07:01:53;;;;;;;109.03;32.38;;;8.40;99.90;;;;;;4982426;28;20684;-83
2023/02/21 07:04:19;;;;;;;108.95;35.60;;;8.40;99.90;;;;;;4982432;28;20563;-83
2023/02/21 07:06:44;;;;;;;110.93;33.10;;;8.40;99.90;;;;;;4999986;28;20178;-83
2023/02/21 07:09:10;;;;;;;101.77;30.97;;;8.40;99.90;;;;;;4999429;28;20171;-84
2023/02/21 07:11:36;;;;;;;105.63;30.23;;;8.40;99.90;;;;;;4999822;28;20182;-84
2023/02/21 07:14:04;;;;;;;102.53;28.40;;;8.30;99.90;;;;;;4999533;28;20166;-83
2023/02/21 07:16:30;;;;;;;102.40;29.40;;;8.40;99.90;;;;;;4998882;28;20542;-84
2023/02/21 07:18:56;;;;;;;116.73;31.27;;;8.40;99.90;;;;;;4997944;28;20170;-83
2023/02/21 07:21:22;;;;;;;107.03;31.90;;;8.30;99.90;;;;;;4998923;28;20187;-84
2023/02/21 07:23:48;;;;;;;105.78;34.20;;;8.40;99.90;;;;;;4982522;28;20181;-83
2023/02/21 07:26:13;;;;;;;106.00;32.57;;;8.40;99.90;;;;;;4998850;28;20171;-83
2023/02/21 07:28:39;;;;;;;102.10;31.13;;;8.40;99.90;;;;;;4981369;28;20448;-83
2023/02/21 07:31:05;;;;;;;107.20;31.80;;;8.40;99.90;;;;;;4981514;28;20635;-83
2023/02/21 07:33:31;;;;;;;101.60;30.15;;;8.40;99.90;;;;;;4998804;28;20427;-83
2023/02/21 07:35:57;;;;;;;105.17;31.87;;;8.50;99.90;;;;;;4998465;28;20269;-83
2023/02/21 07:38:25;;;;;;;107.53;31.60;;;8.50;99.90;;;;;;4997755;28;20167;-83
2023/02/21 07:40:54;;;;;;;102.78;31.85;;;8.50;99.90;;;;;;4999506;28;20174;-83
2023/02/21 07:43:19;;;;;;;109.53;32.58;;;8.50;99.90;;;;;;4999385;28;20186;-84
2023/02/21 07:45:45;;;;;;;106.20;29.70;;;8.60;99.90;;;;;;4999365;28;20174;-84
2023/02/21 07:48:13;;;;;;;104.90;28.17;;;8.60;99.90;;;;;;4998823;28;20654;-83
2023/02/21 07:50:43;;;;;;;106.88;32.35;;;8.60;99.90;;;;;;4998835;28;20630;-83
2023/02/21 07:53:09;;;;;;;101.43;27.95;;;8.60;99.90;;;;;;4998908;28;20633;-84
2023/02/21 07:55:35;;;;;;;103.97;30.13;;;8.60;99.90;;;;;;4998601;28;20162;-83
2023/02/21 07:58:01;;;;;;;104.70;28.45;;;8.70;99.90;;;;;;4981280;28;20734;-84
2023/02/21 08:00:27;;;;;;;108.22;28.90;;;8.70;99.90;;;;;;4981486;28;20175;-83
2023/02/21 08:02:53;;;;;;;108.57;29.60;;;8.70;99.90;;;;;;4999040;28;20206;-83
2023/02/21 08:05:19;;;;;;;107.67;29.10;;;8.70;99.90;;;;;;4997973;28;20402;-83
2023/02/21 08:07:45;;;;;;;113.05;30.73;;;8.70;99.90;;;;;;4998422;28;20170;-83
2023/02/21 08:10:17;;;;;;;106.68;31.38;;;8.80;99.90;;;;;;4981477;28;20194;-83
2023/02/21 08:12:43;;;;;;;98.70;26.15;;;8.80;99.90;;;;;;4998361;28;20210;-83
2023/02/21 08:15:08;;;;;;;106.03;28.87;;;8.80;99.90;;;;;;4998356;28;20582;-83
2023/02/21 08:17:34;;;;;;;116.87;30.97;;;8.80;99.90;;;;;;4998709;28;20186;-83
2023/02/21 08:20:00;;;;;;;104.93;28.10;;;8.90;99.90;;;;;;4998273;28;20163;-84
2023/02/21 08:22:25;;;;;;;106.00;28.57;;;8.90;99.90;;;;;;4998252;28;20205;-84
2023/02/21 08:24:51;;;;;;;100.03;26.77;;;8.90;99.90;;;;;;4998634;28;20169;-83
2023/02/21 08:27:17;;;;;;;114.93;31.10;;;8.90;99.90;;;;;;4999027;28;20189;-84
2023/02/21 08:29:43;;;;;;;108.83;31.07;;;8.90;99.90;;;;;;4980772;28;20534;-84
2023/02/21 08:32:09;;;;;;;111.78;30.83;;;8.90;99.90;;;;;;4999041;28;20434;-83
2023/02/21 08:34:35;;;;;;;112.90;29.50;;;9.00;99.90;;;;;;4984814;28;20196;-84
2023/02/21 08:37:03;;;;;;;106.10;29.67;;;9.00;99.90;;;;;;4984450;28;20201;-83
2023/02/21 08:39:30;;;;;;;109.55;30.30;;;9.10;99.90;;;;;;5001556;28;20178;-84
2023/02/21 08:41:56;;;;;;;112.78;29.80;;;9.00;99.90;;;;;;4984823;28;20213;-84
2023/02/21 08:44:22;;;;;;;115.03;30.37;;;9.10;99.90;;;;;;5000764;28;20166;-83
2023/02/21 08:46:47;;;;;;;112.37;29.00;;;9.10;99.90;;;;;;5002309;28;20171;-83
2023/02/21 08:49:13;;;;;;;119.07;31.33;;;9.10;99.90;;;;;;5001984;28;20167;-84
2023/02/21 08:51:39;;;;;;;109.87;28.77;;;9.10;99.90;;;;;;5000272;28;20240;-83
2023/02/21 08:54:06;;;;;;;116.57;27.30;;;9.20;99.90;;;;;;5001841;28;20801;-83
2023/02/21 08:56:32;;;;;;;116.30;30.23;;;9.20;99.90;;;;;;5001654;28;20179;-84
2023/02/21 08:58:59;;;;;;;109.43;24.98;;;9.20;99.90;;;;;;5002010;28;20331;-83
2023/02/21 09:01:31;;;;;;;103.60;23.67;;;9.20;99.90;;;;;;4984407;28;20190;-84
2023/02/21 09:03:57;;;;;;;108.55;28.38;;;9.30;99.90;;;;;;4984187;28;20171;-83
2023/02/21 09:06:22;;;;;;;104.37;30.50;;;9.10;99.90;;;;;;5001786;28;20254;-84
2023/02/21 09:08:48;;;;;;;106.40;26.13;;;9.10;99.90;;;;;;5001638;28;20178;-83
2023/02/21 09:11:14;;;;;;;108.80;29.20;;;9.20;99.90;;;;;;5001839;28;20198;-83
2023/02/21 09:13:42;;;;;;;104.07;27.47;;;9.10;99.90;;;;;;5000700;28;20251;-83
2023/02/21 09:16:07;;;;;;;101.45;27.58;;;9.10;99.90;;;;;;5001370;28;20197;-84
2023/02/21 09:18:33;;;;;;;112.10;30.63;;;9.10;99.90;;;;;;5000405;28;20209;-83
2023/02/21 09:20:59;;;;;;;108.70;31.13;;;9.10;99.90;;;;;;4983696;28;20181;-83
2023/02/21 09:23:28;;;;;;;116.07;31.60;;;9.10;99.90;;;;;;5000311;28;20661;-83
2023/02/21 09:25:54;;;;;;;114.57;33.25;;;9.10;99.90;;;;;;4983890;28;20428;-83
2023/02/21 09:28:23;;;;;;;119.75;33.47;;;9.20;99.90;;;;;;5001124;28;20241;-83
2023/02/21 09:30:52;;;;;;;106.70;27.88;;;9.20;99.90;;;;;;5001100;28;20166;-83
2023/02/21 09:33:18;;;;;;;106.85;25.02;;;9.30;99.90;;;;;;4983421;28;20177;-84
2023/02/21 09:35:44;;;;;;;98.87;23.70;;;9.40;99.90;;;;;;5001220;28;20163;-83
2023/02/21 09:38:09;;;;;;;103.87;22.07;;;9.50;99.90;;;;;;5000822;28;20246;-85
2023/02/21 09:40:40;;;;;;;107.17;22.43;;;9.50;99.90;;;;;;5000563;28;20236;-83
2023/02/21 09:43:14;;;;;;;99.90;20.52;;;9.50;99.90;;;;;;4983362;28;20194;-83
2023/02/21 09:45:42;;;;;;;105.38;22.55;;;9.40;99.90;;;;;;4983891;28;20178;-83
2023/02/21 09:48:15;;;;;;;96.50;21.08;;;9.40;99.90;;;;;;5000806;28;20158;-83
2023/02/21 09:50:50;;;;;;;104.82;25.58;;;9.40;99.90;;;;;;5001487;28;20524;-83
2023/02/21 09:53:21;;;;;;;101.20;24.63;;;9.40;99.90;;;;;;5001508;28;20158;-83
2023/02/21 09:55:49;;;;;;;104.38;23.00;;;9.40;99.90;;;;;;4983773;28;20193;-83
2023/02/21 09:58:18;;;;;;;103.90;23.10;;;9.50;99.90;;;;;;4983259;28;20198;-84
2023/02/21 10:00:44;;;;;;;106.20;22.40;;;9.60;99.90;;;;;;4983586;28;20177;-83
2023/02/21 10:03:15;;;;;;;104.67;22.30;;;9.50;99.90;;;;;;5000411;28;20182;-83
2023/02/21 10:05:53;;;;;;;106.05;21.10;;;9.50;99.90;;;;;;4999693;28;20174;-83
2023/02/21 10:08:35;;;;;;;104.97;21.95;;;9.40;99.90;;;;;;5000931;28;20237;-83
2023/02/21 10:11:19;;;;;;;103.78;24.10;;;9.40;99.90;;;;;;5000703;28;20151;-83
2023/02/21 10:14:01;;;;;;;108.57;23.50;;;9.50;99.90;;;;;;4982814;28;20258;-83
2023/02/21 10:16:34;;;;;;;97.95;21.75;;;9.50;99.90;;;;;;5000585;28;20174;-83
2023/02/21 10:19:41;;;;;;;102.00;21.58;;;9.60;99.90;;;;;;4983313;28;20574;-83
2023/02/21 10:22:19;;;;;;;108.05;23.23;;;9.60;99.90;;;;;;5000107;28;20186;-83
2023/02/21 10:24:52;;;;;;;111.35;22.92;;;9.70;99.90;;;;;;5000986;28;20508;-83
2023/02/21 10:27:29;;;;;;;113.00;23.13;;;9.90;99.90;;;;;;4983498;28;20170;-83
2023/02/21 10:30:09;;;;;;;104.82;22.67;;;10.00;99.90;;;;;;5001263;28;20179;-83
2023/02/21 10:32:36;;;;;;;116.18;25.42;;;10.10;99.90;;;;;;5000225;28;20269;-83
2023/02/21 10:35:03;;;;;;;113.78;21.70;;;10.10;99.90;;;;;;5000032;28;20557;-83
2023/02/21 10:37:39;;;;;;;103.30;21.00;;;10.10;99.90;;;;;;4982875;28;20608;-83
2023/02/21 10:40:30;;;;;;;112.50;25.35;;;10.20;99.90;;;;;;4998804;28;20198;-83
2023/02/21 10:43:19;;;;;;;104.20;21.75;;;10.30;99.90;;;;;;4999869;28;20178;-84
2023/02/21 10:45:53;;;;;;;107.63;22.50;;;10.40;99.90;;;;;;4999542;28;20169;-83
2023/02/21 10:48:27;;;;;;;105.10;19.67;;;10.40;99.90;;;;;;4999870;28;20155;-83
2023/02/21 10:51:16;;;;;;;101.22;20.52;;;10.30;99.90;;;;;;4999643;28;20165;-83
2023/02/21 10:53:49;;;;;;;99.95;20.60;;;10.40;99.90;;;;;;5000076;28;20226;-84
2023/02/21 10:56:37;;;;;;;102.97;21.92;;;10.40;99.90;;;;;;4998785;28;20195;-83
2023/02/21 10:59:26;;;;;;;99.40;21.13;;;10.20;99.90;;;;;;4981949;28;20261;-83
2023/02/21 11:01:53;;;;;;;101.68;21.67;;;10.40;99.90;;;;;;4981002;28;20195;-83
2023/02/21 11:04:19;;;;;;;106.05;21.60;;;10.40;99.90;;;;;;4982144;28;20186;-83
2023/02/21 11:07:07;;;;;;;100.00;20.80;;;10.30;99.90;;;;;;4998091;28;20634;-83
2023/02/21 11:09:36;;;;;;;102.78;24.23;;;10.30;99.90;;;;;;5000226;28;20150;-83
2023/02/21 11:12:23;;;;;;;106.85;22.95;;;10.40;99.90;;;;;;4999416;28;20182;-84
2023/02/21 11:14:57;;;;;;;108.53;23.30;;;10.30;99.90;;;;;;4999589;28;20174;-83
2023/02/21 11:17:33;;;;;;;112.63;24.23;;;10.30;99.90;;;;;;4997733;28;20181;-83
2023/02/21 11:20:21;;;;;;;103.10;24.40;;;10.40;99.90;;;;;;4997974;28;20162;-83
2023/02/21 11:22:48;;;;;;;106.65;24.15;;;10.50;99.90;;;;;;4981944;28;20566;-83
2023/02/21 11:25:26;;;;;;;102.75;22.45;;;10.60;99.90;;;;;;4999191;28;20169;-83
2023/02/21 11:28:11;;;;;;;109.00;22.50;;;10.70;99.90;;;;;;4999362;28;20174;-84
2023/02/21 11:31:00;;;;;;;102.05;21.58;;;10.80;99.90;;;;;;4999413;28;20674;-84
2023/02/21 11:33:26;;;;;;;96.80;21.13;;;10.90;99.90;;;;;;4999127;28;20174;-84
2023/02/21 11:36:07;;;;;;;96.15;20.98;;;10.80;99.90;;;;;;4997874;28;20167;-83
2023/02/21 11:40:59;;;;;;;104.53;24.00;;;11.10;99.90;;;;;;5063764;22;20229;-80
2023/02/21 11:43:32;;;;;;;107.97;22.35;;;11.20;99.90;;;;;;4998779;28;20198;-80
2023/02/21 11:46:20;;;;;;;107.18;23.70;;;11.30;99.90;;;;;;4998548;28;20153;-80
2023/02/21 11:49:13;;;;;;;100.95;22.15;;;11.20;99.90;;;;;;4998475;28;20671;-80
2023/02/21 11:52:01;;;;;;;108.53;20.52;;;11.30;99.90;;;;;;4997974;28;20200;-80
2023/02/21 11:54:31;;;;;;;98.70;19.73;;;11.50;99.90;;;;;;4997693;28;20173;-80
2023/02/21 11:57:07;;;;;;;103.05;22.85;;;11.50;99.90;;;;;;4980668;28;20197;-80
2023/02/21 12:00:16;;;;;;;102.03;21.70;;;11.60;99.90;;;;;;4980519;28;20159;-81
2023/02/21 12:03:03;;;;;;;103.35;22.35;;;11.50;99.90;;;;;;4998013;28;20264;-81
2023/02/21 12:05:53;;;;;;;99.15;20.73;;;11.80;99.90;;;;;;4998030;28;20154;-83
2023/02/21 12:08:45;;;;;;;98.82;20.25;;;11.80;99.90;;;;;;4980723;28;20653;-82
2023/02/21 12:11:50;;;;;;;105.75;24.13;;;12.00;99.90;;;;;;4997694;28;20206;-81
2023/02/21 12:14:39;;;;;;;104.00;22.63;;;12.10;99.90;;;;;;4998371;28;20685;-81
2023/02/21 12:17:44;;;;;;;101.82;22.75;;;12.00;99.90;;;;;;4998545;28;20575;-81
2023/02/21 12:20:32;;;;;;;104.07;22.67;;;12.00;99.90;;;;;;4989684;28;20175;-81
2023/02/21 12:23:22;;;;;;;99.03;21.65;;;12.00;99.90;;;;;;4997896;28;20182;-81
2023/02/21 12:26:11;;;;;;;98.63;20.40;;;12.00;99.50;;;;;;4998590;28;20149;-81
2023/02/21 12:29:12;;;;;;;106.90;22.08;;;12.30;99.90;;;;;;4998137;28;20151;-81
2023/02/21 12:32:01;;;;;;;101.15;22.45;;;12.50;98.20;;;;;;4974890;28;20589;-81
2023/02/21 12:35:15;;;;;;;104.32;25.15;;;12.50;87.90;;;;;;4997829;28;20161;-81
2023/02/21 12:37:43;;;;;;;107.85;25.02;;;12.70;95.80;;;;;;4975250;28;20697;-81
2023/02/21 12:40:39;;;;;;;107.63;25.15;;;12.90;92.30;;;;;;4997818;28;20272;-81
2023/02/21 12:43:17;;;;;;;111.97;26.92;;;13.00;76.00;;;;;;4996971;28;20198;-81
2023/02/21 12:45:51;;;;;;;115.00;27.80;;;13.00;86.10;;;;;;4996773;28;20162;-81
2023/02/21 12:48:36;;;;;;;113.47;26.85;;;12.90;84.30;;;;;;4996085;28;20189;-81
2023/02/21 12:51:10;;;;;;;112.55;26.65;;;12.90;86.70;;;;;;4997819;28;20237;-81
2023/02/21 12:53:59;;;;;;;127.00;28.30;;;12.90;81.10;;;;;;4997487;28;20544;-81
2023/02/21 12:56:52;;;;;;;109.18;28.73;;;12.70;80.20;;;;;;4997460;28;20178;-81
2023/02/21 12:59:47;;;;;;;111.07;26.48;;;12.50;81.50;;;;;;4997280;28;20167;-81
2023/02/21 13:02:33;;;;;;;112.78;29.40;;;12.60;86.10;;;;;;4996084;28;20689;-83
2023/02/21 13:05:12;;;;;;;125.03;29.25;;;12.60;85.90;;;;;;4997975;28;20143;-81
2023/02/21 13:07:45;;;;;;;116.85;25.90;;;12.70;91.00;;;;;;4996941;28;20178;-81
2023/02/21 13:10:19;;;;;;;114.43;26.65;;;12.80;88.70;;;;;;4997732;28;20159;-81
2023/02/21 13:12:59;;;;;;;115.38;27.42;;;12.90;88.20;;;;;;4997370;28;20186;-81
2023/02/21 13:15:30;;;;;;;115.20;27.75;;;12.90;89.30;;;;;;4997142;28;20158;-81
2023/02/21 13:18:07;;;;;;;108.22;27.17;;;12.90;78.30;;;;;;4997284;28;20604;-81
2023/02/21 13:20:46;;;;;;;122.33;27.57;;;12.70;81.10;;;;;;5000578;28;20162;-81
2023/02/21 13:26:55;;;;;;;117.88;27.77;;;12.80;88.80;;;;;;5000831;28;20174;-82
2023/02/21 13:29:31;;;;;;;117.38;27.73;;;12.60;84.10;;;;;;4999323;28;20194;-81
2023/02/21 13:32:19;;;;;;;117.40;29.25;;;12.60;92.60;;;;;;5000483;28;20179;-81
2023/02/21 13:37:27;;;;;;;114.65;28.92;;;12.60;88.40;;;;;;4999301;28;20214;-82
2023/02/21 13:40:06;;;;;;;117.18;28.35;;;12.50;91.60;;;;;;5001337;28;20538;-82
2023/02/21 13:42:35;;;;;;;117.15;27.15;;;12.50;95.60;;;;;;5000546;28;20210;-82
2023/02/21 13:45:24;;;;;;;111.60;27.48;;;12.60;96.60;;;;;;5000516;28;20188;-82
2023/02/21 13:47:52;;;;;;;114.82;28.55;;;12.70;96.80;;;;;;5000220;28;20181;-82
2023/02/21 13:50:41;;;;;;;112.47;27.73;;;12.70;92.50;;;;;;5000600;28;20238;-82
2023/02/21 13:53:25;;;;;;;104.00;24.85;;;12.60;84.80;;;;;;4981735;28;20206;-82
2023/02/21 13:56:05;;;;;;;115.88;28.35;;;12.60;92.40;;;;;;5000010;28;20176;-82
2023/02/21 13:58:35;;;;;;;108.28;26.95;;;12.60;92.90;;;;;;5000530;28;20161;-82
2023/02/21 14:01:27;;;;;;;113.20;26.58;;;12.60;91.90;;;;;;5000245;28;20186;-82
2023/02/21 14:03:56;;;;;;;107.90;26.35;;;12.60;90.90;;;;;;4995564;28;20177;-82
2023/02/21 14:06:34;;;;;;;110.70;26.67;;;12.50;92.00;;;;;;4982352;28;20198;-82
2023/02/21 14:09:15;;;;;;;115.57;26.60;;;12.60;95.00;;;;;;5000245;28;20241;-82
2023/02/21 14:11:48;;;;;;;107.85;25.67;;;12.60;94.10;;;;;;4999970;28;20186;-82
2023/02/21 14:14:28;;;;;;;106.65;26.63;;;12.70;92.80;;;;;;4999648;28;20193;-82
2023/02/21 14:17:04;;;;;;;114.05;29.60;;;12.60;93.30;;;;;;4982997;28;20194;-82
2023/02/21 14:19:39;;;;;;;110.00;28.90;;;12.40;95.20;;;;;;4982283;28;20712;-82
2023/02/21 14:22:25;;;;;;;117.57;29.23;;;12.50;93.90;;;;;;4999852;28;20182;-82
2023/02/21 14:25:23;;;;;;;119.20;29.80;;;12.50;94.70;;;;;;4982405;28;20173;-82
2023/02/21 14:27:52;;;;;;;115.00;29.02;;;12.30;97.00;;;;;;4999317;28;20190;-82
2023/02/21 14:30:31;;;;;;;113.78;28.45;;;12.30;99.90;;;;;;4981909;28;20171;-82
2023/02/21 14:33:17;;;;;;;109.65;26.75;;;12.20;99.00;;;;;;4999454;28;20186;-82
2023/02/21 14:35:55;;;;;;;118.72;28.98;;;12.20;99.90;;;;;;4999912;28;20185;-82
2023/02/21 14:38:23;;;;;;;112.20;25.75;;;12.10;99.60;;;;;;4998871;28;20162;-82
2023/02/21 14:41:10;;;;;;;116.43;27.08;;;12.20;99.90;;;;;;4999596;28;20514;-82
2023/02/21 14:43:54;;;;;;;121.15;27.70;;;12.20;99.90;;;;;;4999662;28;20155;-82
2023/02/21 14:46:45;;;;;;;115.55;28.98;;;12.20;98.20;;;;;;4981997;28;20178;-82
2023/02/21 14:49:16;;;;;;;120.32;29.35;;;12.20;98.40;;;;;;4999483;28;20155;-82
2023/02/21 14:52:12;;;;;;;109.22;26.33;;;12.10;98.40;;;;;;4981482;28;20281;-82
2023/02/21 14:54:57;;;;;;;112.60;26.83;;;12.10;99.50;;;;;;4999434;28;20182;-83
2023/02/21 14:57:45;;;;;;;119.85;28.98;;;12.10;99.90;;;;;;4981859;28;20202;-82
2023/02/21 15:00:37;;;;;;;115.32;27.92;;;12.20;99.90;;;;;;4999222;28;20213;-82
2023/02/21 15:03:24;;;;;;;112.45;27.40;;;12.10;99.90;;;;;;4999038;28;20587;-82
2023/02/21 15:09:23;;;;;;;113.50;26.20;;;12.10;99.90;;;;;;4940038;29;20165;-82
2023/02/21 15:11:50;;;;;;;116.40;27.00;;;12.00;99.30;;;;;;4988028;28;20697;-82
2023/02/21 15:14:28;;;;;;;113.00;26.33;;;11.90;99.90;;;;;;4999334;28;20253;-82
2023/02/21 15:17:00;;;;;;;112.50;27.00;;;12.00;99.90;;;;;;4999397;28;20228;-82
2023/02/21 15:19:31;;;;;;;111.00;25.83;;;11.90;99.90;;;;;;4981454;28;20218;-82
2023/02/21 15:22:26;;;;;;;115.22;26.55;;;11.90;99.90;;;;;;4999290;28;20179;-82
2023/02/21 15:25:00;;;;;;;108.93;24.30;;;11.90;99.90;;;;;;4999200;28;20209;-83